sensor_id;sensor_type;location;lat;lon;timestamp;temperature;humidity
8643;DHT22;4359;49.358;11.256;2022-08-21T00:01:05;15.60;99.90
8643;DHT22;4359;49.358;11.256;2022-08-21T00:03:32;15.60;99.90
8643;DHT22;4359;49.358;11.256;2022-08-21T00:05:58;15.50;99.90
8643;DHT22;4359;49.358;11.256;2022-08-21T00:08:24;15.60;99.90
8643;DHT22;4359;49.358;11.256;2022-08-21T00:10:49;15.60;99.90
8643;DHT22;4359;49.358;11.256;2022-08-21T00:13:16;15.70;99.90
8643;DHT22;4359;49.358;11.256;2022-08-21T00:15:42;15.70;99.90
8643;DHT22;4359;49.358;11.256;2022-08-21T00:18:09;15.70;99.90
8643;DHT22;4359;49.358;11.256;2022-08-21T00:20:37;15.70;99.90
8643;DHT22;4359;49.358;11.256;2022-08-21T00:23:03;15.60;99.90
8643;DHT22;4359;49.358;11.256;2022-08-21T00:25:29;15.60;99.90
8643;DHT22;4359;49.358;11.256;2022-08-21T00:27:55;15.60;99.90
8643;DHT22;4359;49.358;11.256;2022-08-21T00:30:22;15.60;99.90
8643;DHT22;4359;49.358;11.256;2022-08-21T00:32:51;15.60;99.90
8643;DHT22;4359;49.358;11.256;2022-08-21T00:35:21;15.60;99.90
8643;DHT22;4359;49.358;11.256;2022-08-21T00:37:46;15.60;99.90
8643;DHT22;4359;49.358;11.256;2022-08-21T00:40:17;15.50;99.90
8643;DHT22;4359;49.358;11.256;2022-08-21T00:42:44;15.50;99.90
8643;DHT22;4359;49.358;11.256;2022-08-21T00:45:10;15.50;99.90
8643;DHT22;4359;49.358;11.256;2022-08-21T00:47:39;15.50;99.90
8643;DHT22;4359;49.358;11.256;2022-08-21T00:50:07;15.40;99.90
8643;DHT22;4359;49.358;11.256;2022-08-21T00:52:35;15.40;99.90
8643;DHT22;4359;49.358;11.256;2022-08-21T00:55:03;15.30;99.90
8643;DHT22;4359;49.358;11.256;2022-08-21T00:57:34;15.30;99.90
8643;DHT22;4359;49.358;11.256;2022-08-21T01:00:03;15.30;99.90
8643;DHT22;4359;49.358;11.256;2022-08-21T01:02:30;15.20;99.90
8643;DHT22;4359;49.358;11.256;2022-08-21T01:04:55;15.20;99.90
8643;DHT22;4359;49.358;11.256;2022-08-21T01:07:21;15.20;99.90
8643;DHT22;4359;49.358;11.256;2022-08-21T01:09:47;15.20;99.90
8643;DHT22;4359;49.358;11.256;2022-08-21T01:12:15;15.10;99.90
8643;DHT22;4359;49.358;11.256;2022-08-21T01:14:41;15.10;99.90
8643;DHT22;4359;49.358;11.256;2022-08-21T01:17:09;15.10;99.90
8643;DHT22;4359;49.358;11.256;2022-08-21T01:19:35;15.10;99.90
8643;DHT22;4359;49.358;11.256;2022-08-21T01:22:00;15.00;99.90
8643;DHT22;4359;49.358;11.256;2022-08-21T01:24:26;15.00;99.90
8643;DHT22;4359;49.358;11.256;2022-08-21T01:26:52;14.90;99.90
8643;DHT22;4359;49.358;11.256;2022-08-21T01:32:08;14.80;99.90
8643;DHT22;4359;49.358;11.256;2022-08-21T01:34:37;14.80;99.90
8643;DHT22;4359;49.358;11.256;2022-08-21T01:37:03;14.80;99.90
8643;DHT22;4359;49.358;11.256;2022-08-21T01:39:30;14.70;99.90
8643;DHT22;4359;49.358;11.256;2022-08-21T01:41:55;14.80;99.90
8643;DHT22;4359;49.358;11.256;2022-08-21T01:44:22;14.80;99.90
8643;DHT22;4359;49.358;11.256;2022-08-21T01:46:49;14.80;99.90
8643;DHT22;4359;49.358;11.256;2022-08-21T01:49:15;14.80;99.90
8643;DHT22;4359;49.358;11.256;2022-08-21T01:51:42;14.90;99.90
8643;DHT22;4359;49.358;11.256;2022-08-21T01:54:08;14.80;99.90
8643;DHT22;4359;49.358;11.256;2022-08-21T01:56:45;14.80;99.90
8643;DHT22;4359;49.358;11.256;2022-08-21T01:59:12;14.80;99.90
8643;DHT22;4359;49.358;11.256;2022-08-21T02:01:38;14.80;99.90
8643;DHT22;4359;49.358;11.256;2022-08-21T02:04:07;14.70;99.90
8643;DHT22;4359;49.358;11.256;2022-08-21T02:06:34;14.70;99.90
8643;DHT22;4359;49.358;11.256;2022-08-21T02:09:01;14.70;99.90
8643;DHT22;4359;49.358;11.256;2022-08-21T02:11:27;14.70;99.90
8643;DHT22;4359;49.358;11.256;2022-08-21T02:13:53;14.70;99.90
8643;DHT22;4359;49.358;11.256;2022-08-21T02:16:19;14.60;99.90
8643;DHT22;4359;49.358;11.256;2022-08-21T02:18:44;14.60;99.90
8643;DHT22;4359;49.358;11.256;2022-08-21T02:21:10;14.60;99.90
8643;DHT22;4359;49.358;11.256;2022-08-21T02:23:36;14.60;99.90
8643;DHT22;4359;49.358;11.256;2022-08-21T02:26:04;14.60;99.90
8643;DHT22;4359;49.358;11.256;2022-08-21T02:28:29;14.60;99.90
8643;DHT22;4359;49.358;11.256;2022-08-21T02:30:56;14.60;99.90
8643;DHT22;4359;49.358;11.256;2022-08-21T02:33:22;14.60;99.90
8643;DHT22;4359;49.358;11.256;2022-08-21T02:35:48;14.60;99.90
8643;DHT22;4359;49.358;11.256;2022-08-21T02:38:17;14.60;99.90
8643;DHT22;4359;49.358;11.256;2022-08-21T02:40:45;14.60;99.90
8643;DHT22;4359;49.358;11.256;2022-08-21T02:43:12;14.60;99.90
8643;DHT22;4359;49.358;11.256;2022-08-21T02:45:39;14.60;99.90
8643;DHT22;4359;49.358;11.256;2022-08-21T02:48:08;14.60;99.90
8643;DHT22;4359;49.358;11.256;2022-08-21T02:50:40;14.60;99.90
8643;DHT22;4359;49.358;11.256;2022-08-21T02:53:08;14.60;99.90
8643;DHT22;4359;49.358;11.256;2022-08-21T02:55:36;14.60;99.90
8643;DHT22;4359;49.358;11.256;2022-08-21T02:58:04;14.50;99.90
8643;DHT22;4359;49.358;11.256;2022-08-21T03:00:31;14.50;99.90
8643;DHT22;4359;49.358;11.256;2022-08-21T03:02:57;14.50;99.90
8643;DHT22;4359;49.358;11.256;2022-08-21T03:05:25;14.60;99.90
8643;DHT22;4359;49.358;11.256;2022-08-21T03:07:51;14.60;99.90
8643;DHT22;4359;49.358;11.256;2022-08-21T03:10:18;14.60;99.90
8643;DHT22;4359;49.358;11.256;2022-08-21T03:12:45;14.60;99.90
8643;DHT22;4359;49.358;11.256;2022-08-21T03:15:19;14.60;99.90
8643;DHT22;4359;49.358;11.256;2022-08-21T03:17:45;14.60;99.90
8643;DHT22;4359;49.358;11.256;2022-08-21T03:20:19;14.60;99.90
8643;DHT22;4359;49.358;11.256;2022-08-21T03:22:45;14.60;99.90
8643;DHT22;4359;49.358;11.256;2022-08-21T03:25:11;14.60;99.90
8643;DHT22;4359;49.358;11.256;2022-08-21T03:27:37;14.60;99.90
8643;DHT22;4359;49.358;11.256;2022-08-21T03:30:04;14.60;99.90
8643;DHT22;4359;49.358;11.256;2022-08-21T03:32:30;14.60;99.90
8643;DHT22;4359;49.358;11.256;2022-08-21T03:34:57;14.70;99.90
8643;DHT22;4359;49.358;11.256;2022-08-21T03:37:23;14.70;99.90
8643;DHT22;4359;49.358;11.256;2022-08-21T03:39:50;14.80;99.90
8643;DHT22;4359;49.358;11.256;2022-08-21T03:42:15;14.80;99.90
8643;DHT22;4359;49.358;11.256;2022-08-21T03:44:41;14.80;99.90
8643;DHT22;4359;49.358;11.256;2022-08-21T03:47:07;14.80;99.90
8643;DHT22;4359;49.358;11.256;2022-08-21T03:49:34;14.80;99.90
8643;DHT22;4359;49.358;11.256;2022-08-21T03:52:01;14.70;99.90
8643;DHT22;4359;49.358;11.256;2022-08-21T03:54:27;14.80;99.90
8643;DHT22;4359;49.358;11.256;2022-08-21T03:56:52;14.80;99.90
8643;DHT22;4359;49.358;11.256;2022-08-21T03:59:18;14.80;99.90
8643;DHT22;4359;49.358;11.256;2022-08-21T04:02:13;14.80;99.90
8643;DHT22;4359;49.358;11.256;2022-08-21T04:04:41;14.80;99.90
8643;DHT22;4359;49.358;11.256;2022-08-21T04:07:07;14.80;99.90
8643;DHT22;4359;49.358;11.256;2022-08-21T04:09:32;14.80;99.90
8643;DHT22;4359;49.358;11.256;2022-08-21T04:11:58;14.80;99.90
8643;DHT22;4359;49.358;11.256;2022-08-21T04:14:25;14.80;99.90
8643;DHT22;4359;49.358;11.256;2022-08-21T04:16:51;14.80;99.90
8643;DHT22;4359;49.358;11.256;2022-08-21T04:19:17;14.80;99.90
8643;DHT22;4359;49.358;11.256;2022-08-21T04:21:45;14.90;99.90
8643;DHT22;4359;49.358;11.256;2022-08-21T04:24:11;14.90;99.90
8643;DHT22;4359;49.358;11.256;2022-08-21T04:26:38;15.00;99.90
8643;DHT22;4359;49.358;11.256;2022-08-21T04:29:05;15.00;99.90
8643;DHT22;4359;49.358;11.256;2022-08-21T04:31:32;15.00;99.90
8643;DHT22;4359;49.358;11.256;2022-08-21T04:33:58;15.00;99.90
8643;DHT22;4359;49.358;11.256;2022-08-21T04:36:24;15.00;99.90
8643;DHT22;4359;49.358;11.256;2022-08-21T04:38:50;15.00;99.90
8643;DHT22;4359;49.358;11.256;2022-08-21T04:41:16;15.00;99.90
8643;DHT22;4359;49.358;11.256;2022-08-21T04:43:42;15.00;99.90
8643;DHT22;4359;49.358;11.256;2022-08-21T04:46:08;15.00;99.90
8643;DHT22;4359;49.358;11.256;2022-08-21T04:48:34;15.20;99.90
8643;DHT22;4359;49.358;11.256;2022-08-21T04:56:11;15.20;99.90
8643;DHT22;4359;49.358;11.256;2022-08-21T04:58:39;15.30;99.90
8643;DHT22;4359;49.358;11.256;2022-08-21T05:01:09;15.30;99.90
8643;DHT22;4359;49.358;11.256;2022-08-21T05:03:37;15.30;99.90
8643;DHT22;4359;49.358;11.256;2022-08-21T05:06:05;15.30;99.90
8643;DHT22;4359;49.358;11.256;2022-08-21T05:08:32;15.20;99.90
8643;DHT22;4359;49.358;11.256;2022-08-21T05:10:59;15.30;99.90
8643;DHT22;4359;49.358;11.256;2022-08-21T05:13:25;15.30;99.90
8643;DHT22;4359;49.358;11.256;2022-08-21T05:15:50;15.30;99.90
8643;DHT22;4359;49.358;11.256;2022-08-21T05:18:16;15.40;99.90
8643;DHT22;4359;49.358;11.256;2022-08-21T05:20:42;15.30;99.90
8643;DHT22;4359;49.358;11.256;2022-08-21T05:23:12;15.30;99.90
8643;DHT22;4359;49.358;11.256;2022-08-21T05:25:38;15.40;99.90
8643;DHT22;4359;49.358;11.256;2022-08-21T05:28:04;15.40;99.90
8643;DHT22;4359;49.358;11.256;2022-08-21T05:30:30;15.40;99.90
8643;DHT22;4359;49.358;11.256;2022-08-21T05:32:57;15.30;99.90
8643;DHT22;4359;49.358;11.256;2022-08-21T05:35:23;15.20;99.90
8643;DHT22;4359;49.358;11.256;2022-08-21T05:37:49;15.10;99.90
8643;DHT22;4359;49.358;11.256;2022-08-21T05:40:14;15.10;99.90
8643;DHT22;4359;49.358;11.256;2022-08-21T05:42:40;15.00;99.90
8643;DHT22;4359;49.358;11.256;2022-08-21T05:45:06;15.10;99.90
8643;DHT22;4359;49.358;11.256;2022-08-21T05:47:32;15.20;99.90
8643;DHT22;4359;49.358;11.256;2022-08-21T05:49:57;15.30;99.90
8643;DHT22;4359;49.358;11.256;2022-08-21T05:52:23;15.40;99.90
8643;DHT22;4359;49.358;11.256;2022-08-21T05:54:49;15.50;99.90
8643;DHT22;4359;49.358;11.256;2022-08-21T05:57:15;15.50;99.90
8643;DHT22;4359;49.358;11.256;2022-08-21T05:59:41;15.60;99.90
8643;DHT22;4359;49.358;11.256;2022-08-21T06:02:07;15.70;99.90
8643;DHT22;4359;49.358;11.256;2022-08-21T06:04:37;15.70;99.90
8643;DHT22;4359;49.358;11.256;2022-08-21T06:07:04;15.70;99.90
8643;DHT22;4359;49.358;11.256;2022-08-21T06:09:30;15.80;99.90
8643;DHT22;4359;49.358;11.256;2022-08-21T06:11:56;15.80;99.90
8643;DHT22;4359;49.358;11.256;2022-08-21T06:14:22;15.70;99.90
8643;DHT22;4359;49.358;11.256;2022-08-21T06:16:47;15.80;99.90
8643;DHT22;4359;49.358;11.256;2022-08-21T06:19:13;15.90;99.90
8643;DHT22;4359;49.358;11.256;2022-08-21T06:21:39;16.10;99.90
8643;DHT22;4359;49.358;11.256;2022-08-21T06:24:05;16.20;99.90
8643;DHT22;4359;49.358;11.256;2022-08-21T06:26:31;16.40;99.90
8643;DHT22;4359;49.358;11.256;2022-08-21T06:28:57;16.40;99.90
8643;DHT22;4359;49.358;11.256;2022-08-21T06:31:25;16.60;99.90
8643;DHT22;4359;49.358;11.256;2022-08-21T06:33:52;16.60;99.90
8643;DHT22;4359;49.358;11.256;2022-08-21T06:36:19;16.60;99.90
8643;DHT22;4359;49.358;11.256;2022-08-21T06:38:46;16.60;99.90
8643;DHT22;4359;49.358;11.256;2022-08-21T06:41:12;16.70;99.90
8643;DHT22;4359;49.358;11.256;2022-08-21T06:43:38;16.70;99.90
8643;DHT22;4359;49.358;11.256;2022-08-21T06:46:03;16.70;99.90
8643;DHT22;4359;49.358;11.256;2022-08-21T06:48:29;16.80;99.90
8643;DHT22;4359;49.358;11.256;2022-08-21T06:50:59;16.90;99.90
8643;DHT22;4359;49.358;11.256;2022-08-21T06:53:25;17.00;99.90
8643;DHT22;4359;49.358;11.256;2022-08-21T06:55:50;17.10;99.90
8643;DHT22;4359;49.358;11.256;2022-08-21T06:58:17;17.10;99.90
8643;DHT22;4359;49.358;11.256;2022-08-21T07:00:45;17.20;99.90
8643;DHT22;4359;49.358;11.256;2022-08-21T07:03:19;17.30;99.90
8643;DHT22;4359;49.358;11.256;2022-08-21T07:05:46;17.30;99.90
8643;DHT22;4359;49.358;11.256;2022-08-21T07:08:11;17.40;99.90
8643;DHT22;4359;49.358;11.256;2022-08-21T07:10:37;17.50;99.90
8643;DHT22;4359;49.358;11.256;2022-08-21T07:13:03;17.50;99.90
8643;DHT22;4359;49.358;11.256;2022-08-21T07:15:29;17.40;99.90
8643;DHT22;4359;49.358;11.256;2022-08-21T07:17:54;17.20;99.90
8643;DHT22;4359;49.358;11.256;2022-08-21T07:20:20;17.30;99.90
8643;DHT22;4359;49.358;11.256;2022-08-21T07:22:46;17.40;99.90
8643;DHT22;4359;49.358;11.256;2022-08-21T07:25:12;17.60;99.90
8643;DHT22;4359;49.358;11.256;2022-08-21T07:27:37;17.50;99.90
8643;DHT22;4359;49.358;11.256;2022-08-21T07:30:04;17.50;99.90
8643;DHT22;4359;49.358;11.256;2022-08-21T07:32:30;17.60;99.90
8643;DHT22;4359;49.358;11.256;2022-08-21T07:34:56;17.70;99.90
8643;DHT22;4359;49.358;11.256;2022-08-21T07:37:22;17.90;99.90
8643;DHT22;4359;49.358;11.256;2022-08-21T07:39:47;18.10;99.90
8643;DHT22;4359;49.358;11.256;2022-08-21T07:42:15;18.00;99.90
8643;DHT22;4359;49.358;11.256;2022-08-21T07:44:40;18.10;99.90
8643;DHT22;4359;49.358;11.256;2022-08-21T07:47:06;18.00;99.90
8643;DHT22;4359;49.358;11.256;2022-08-21T07:49:32;18.00;99.90
8643;DHT22;4359;49.358;11.256;2022-08-21T07:51:58;18.30;99.90
8643;DHT22;4359;49.358;11.256;2022-08-21T07:54:23;18.60;99.90
8643;DHT22;4359;49.358;11.256;2022-08-21T07:56:49;18.50;99.90
8643;DHT22;4359;49.358;11.256;2022-08-21T07:59:15;18.40;99.90
8643;DHT22;4359;49.358;11.256;2022-08-21T08:01:40;18.20;99.90
8643;DHT22;4359;49.358;11.256;2022-08-21T08:04:06;18.30;99.90
8643;DHT22;4359;49.358;11.256;2022-08-21T08:06:32;18.30;99.90
8643;DHT22;4359;49.358;11.256;2022-08-21T08:08:58;18.10;99.90
8643;DHT22;4359;49.358;11.256;2022-08-21T08:11:23;18.10;99.90
8643;DHT22;4359;49.358;11.256;2022-08-21T08:13:51;18.20;99.90
8643;DHT22;4359;49.358;11.256;2022-08-21T08:16:18;18.60;99.90
8643;DHT22;4359;49.358;11.256;2022-08-21T08:18:44;18.70;99.90
8643;DHT22;4359;49.358;11.256;2022-08-21T08:21:11;19.00;99.90
8643;DHT22;4359;49.358;11.256;2022-08-21T08:23:38;19.10;99.90
8643;DHT22;4359;49.358;11.256;2022-08-21T08:26:04;19.40;99.90
8643;DHT22;4359;49.358;11.256;2022-08-21T08:28:32;19.50;99.90
8643;DHT22;4359;49.358;11.256;2022-08-21T08:30:59;19.60;99.90
8643;DHT22;4359;49.358;11.256;2022-08-21T08:33:25;19.70;99.90
8643;DHT22;4359;49.358;11.256;2022-08-21T08:35:51;19.80;99.90
8643;DHT22;4359;49.358;11.256;2022-08-21T08:38:20;19.90;99.90
8643;DHT22;4359;49.358;11.256;2022-08-21T08:43:16;19.90;99.90
8643;DHT22;4359;49.358;11.256;2022-08-21T08:45:47;20.10;99.90
8643;DHT22;4359;49.358;11.256;2022-08-21T08:48:21;20.10;99.90
8643;DHT22;4359;49.358;11.256;2022-08-21T08:50:56;20.10;99.90
8643;DHT22;4359;49.358;11.256;2022-08-21T08:53:30;20.10;99.90
8643;DHT22;4359;49.358;11.256;2022-08-21T08:55:57;19.90;99.90
8643;DHT22;4359;49.358;11.256;2022-08-21T08:58:34;19.60;99.90
8643;DHT22;4359;49.358;11.256;2022-08-21T09:01:06;19.50;99.90
8643;DHT22;4359;49.358;11.256;2022-08-21T09:03:34;19.80;99.90
8643;DHT22;4359;49.358;11.256;2022-08-21T09:06:16;20.20;99.90
8643;DHT22;4359;49.358;11.256;2022-08-21T09:09:25;20.60;99.90
8643;DHT22;4359;49.358;11.256;2022-08-21T09:12:06;20.90;99.90
8643;DHT22;4359;49.358;11.256;2022-08-21T09:17:15;20.90;99.90
8643;DHT22;4359;49.358;11.256;2022-08-21T09:22:35;21.80;99.90
8643;DHT22;4359;49.358;11.256;2022-08-21T09:25:22;22.10;99.90
8643;DHT22;4359;49.358;11.256;2022-08-21T09:27:48;22.40;99.90
8643;DHT22;4359;49.358;11.256;2022-08-21T09:30:15;22.90;99.90
8643;DHT22;4359;49.358;11.256;2022-08-21T09:32:41;23.00;99.90
8643;DHT22;4359;49.358;11.256;2022-08-21T09:35:13;22.50;99.90
8643;DHT22;4359;49.358;11.256;2022-08-21T09:38:06;21.90;99.90
8643;DHT22;4359;49.358;11.256;2022-08-21T09:40:42;21.30;99.90
8643;DHT22;4359;49.358;11.256;2022-08-21T09:45:38;21.00;99.90
8643;DHT22;4359;49.358;11.256;2022-08-21T09:48:22;21.20;99.90
8643;DHT22;4359;49.358;11.256;2022-08-21T09:50:51;22.00;99.90
8643;DHT22;4359;49.358;11.256;2022-08-21T09:53:27;23.20;99.90
8643;DHT22;4359;49.358;11.256;2022-08-21T09:56:00;24.50;99.90
8643;DHT22;4359;49.358;11.256;2022-08-21T09:58:48;25.70;99.90
8643;DHT22;4359;49.358;11.256;2022-08-21T10:01:23;26.10;99.90
8643;DHT22;4359;49.358;11.256;2022-08-21T10:04:01;25.50;99.90
8643;DHT22;4359;49.358;11.256;2022-08-21T10:06:28;25.00;99.90
8643;DHT22;4359;49.358;11.256;2022-08-21T10:09:29;24.90;99.90
8643;DHT22;4359;49.358;11.256;2022-08-21T10:13:04;25.30;99.90
8643;DHT22;4359;49.358;11.256;2022-08-21T10:15:18;25.90;99.90
8643;DHT22;4359;49.358;11.256;2022-08-21T10:20:24;26.00;99.90
8643;DHT22;4359;49.358;11.256;2022-08-21T10:25:47;25.60;99.90
8643;DHT22;4359;49.358;11.256;2022-08-21T10:36:43;27.10;99.90
8643;DHT22;4359;49.358;11.256;2022-08-21T10:39:35;27.00;99.90
8643;DHT22;4359;49.358;11.256;2022-08-21T10:45:29;27.00;99.90
8643;DHT22;4359;49.358;11.256;2022-08-21T10:47:55;26.40;99.90
8643;DHT22;4359;49.358;11.256;2022-08-21T10:50:44;25.70;99.90
8643;DHT22;4359;49.358;11.256;2022-08-21T10:56:23;25.90;99.90
8643;DHT22;4359;49.358;11.256;2022-08-21T11:01:42;26.70;99.90
8643;DHT22;4359;49.358;11.256;2022-08-21T11:04:19;26.20;99.90
8643;DHT22;4359;49.358;11.256;2022-08-21T11:06:47;26.00;99.90
8643;DHT22;4359;49.358;11.256;2022-08-21T11:09:18;25.50;99.90
8643;DHT22;4359;49.358;11.256;2022-08-21T11:11:55;24.90;99.90
8643;DHT22;4359;49.358;11.256;2022-08-21T11:17:18;25.10;99.90
8643;DHT22;4359;49.358;11.256;2022-08-21T11:19:54;25.70;99.90
8643;DHT22;4359;49.358;11.256;2022-08-21T11:22:49;25.70;99.90
8643;DHT22;4359;49.358;11.256;2022-08-21T11:25:35;26.20;99.90
8643;DHT22;4359;49.358;11.256;2022-08-21T11:28:03;26.40;99.90
8643;DHT22;4359;49.358;11.256;2022-08-21T11:30:56;25.70;99.90
8643;DHT22;4359;49.358;11.256;2022-08-21T11:33:31;25.20;99.90
8643;DHT22;4359;49.358;11.256;2022-08-21T11:36:15;25.80;99.90
8643;DHT22;4359;49.358;11.256;2022-08-21T11:38:52;25.50;99.90
8643;DHT22;4359;49.358;11.256;2022-08-21T11:41:34;26.10;99.90
8643;DHT22;4359;49.358;11.256;2022-08-21T11:51:43;26.80;99.90
8643;DHT22;4359;49.358;11.256;2022-08-21T11:54:33;26.50;99.90
8643;DHT22;4359;49.358;11.256;2022-08-21T11:57:14;25.50;99.90
8643;DHT22;4359;49.358;11.256;2022-08-21T12:02:31;24.20;99.90
8643;DHT22;4359;49.358;11.256;2022-08-21T12:05:06;24.50;99.90
8643;DHT22;4359;49.358;11.256;2022-08-21T12:07:35;25.60;99.90
8643;DHT22;4359;49.358;11.256;2022-08-21T12:10:06;26.40;99.90
8643;DHT22;4359;49.358;11.256;2022-08-21T12:12:34;27.40;99.90
8643;DHT22;4359;49.358;11.256;2022-08-21T12:15:14;27.80;99.90
8643;DHT22;4359;49.358;11.256;2022-08-21T12:18:18;27.70;99.90
8643;DHT22;4359;49.358;11.256;2022-08-21T12:20:59;27.90;99.90
8643;DHT22;4359;49.358;11.256;2022-08-21T12:23:57;28.20;99.90
8643;DHT22;4359;49.358;11.256;2022-08-21T12:26:27;28.70;99.90
8643;DHT22;4359;49.358;11.256;2022-08-21T12:37:14;28.20;99.90
8643;DHT22;4359;49.358;11.256;2022-08-21T12:39:44;28.60;99.90
8643;DHT22;4359;49.358;11.256;2022-08-21T12:42:37;28.20;99.90
8643;DHT22;4359;49.358;11.256;2022-08-21T12:45:15;28.10;99.90
8643;DHT22;4359;49.358;11.256;2022-08-21T12:50:36;28.90;99.90
8643;DHT22;4359;49.358;11.256;2022-08-21T12:53:13;29.00;99.90
8643;DHT22;4359;49.358;11.256;2022-08-21T12:55:42;29.30;99.90
8643;DHT22;4359;49.358;11.256;2022-08-21T12:58:29;28.90;99.90
8643;DHT22;4359;49.358;11.256;2022-08-21T13:01:14;29.30;99.90
8643;DHT22;4359;49.358;11.256;2022-08-21T13:03:43;29.00;99.90
8643;DHT22;4359;49.358;11.256;2022-08-21T13:06:14;28.40;99.90
8643;DHT22;4359;49.358;11.256;2022-08-21T13:08:43;27.30;99.90
8643;DHT22;4359;49.358;11.256;2022-08-21T13:11:10;27.20;99.90
8643;DHT22;4359;49.358;11.256;2022-08-21T13:13:36;27.60;99.90
8643;DHT22;4359;49.358;11.256;2022-08-21T13:16:08;27.70;99.90
8643;DHT22;4359;49.358;11.256;2022-08-21T13:18:36;28.10;99.90
8643;DHT22;4359;49.358;11.256;2022-08-21T13:21:13;27.70;99.90
8643;DHT22;4359;49.358;11.256;2022-08-21T13:23:40;27.70;99.90
8643;DHT22;4359;49.358;11.256;2022-08-21T13:26:17;28.20;99.90
8643;DHT22;4359;49.358;11.256;2022-08-21T13:28:43;28.40;99.90
8643;DHT22;4359;49.358;11.256;2022-08-21T13:31:17;29.10;99.90
8643;DHT22;4359;49.358;11.256;2022-08-21T13:33:44;28.70;99.90
8643;DHT22;4359;49.358;11.256;2022-08-21T13:36:14;28.30;99.90
8643;DHT22;4359;49.358;11.256;2022-08-21T13:38:42;28.30;99.90
8643;DHT22;4359;49.358;11.256;2022-08-21T13:43:45;27.50;99.90
8643;DHT22;4359;49.358;11.256;2022-08-21T13:46:13;28.20;99.90
8643;DHT22;4359;49.358;11.256;2022-08-21T13:48:41;28.70;99.90
8643;DHT22;4359;49.358;11.256;2022-08-21T13:51:08;29.40;99.90
8643;DHT22;4359;49.358;11.256;2022-08-21T13:56:41;29.50;99.90
8643;DHT22;4359;49.358;11.256;2022-08-21T13:59:07;28.70;99.90
8643;DHT22;4359;49.358;11.256;2022-08-21T14:01:36;27.90;99.90
8643;DHT22;4359;49.358;11.256;2022-08-21T14:04:18;27.40;99.90
8643;DHT22;4359;49.358;11.256;2022-08-21T14:06:45;27.40;99.90
8643;DHT22;4359;49.358;11.256;2022-08-21T14:09:26;28.10;99.90
8643;DHT22;4359;49.358;11.256;2022-08-21T14:11:53;28.40;99.90
8643;DHT22;4359;49.358;11.256;2022-08-21T14:14:23;28.60;99.90
8643;DHT22;4359;49.358;11.256;2022-08-21T14:17:04;29.20;99.90
8643;DHT22;4359;49.358;11.256;2022-08-21T14:22:23;30.00;99.90
8643;DHT22;4359;49.358;11.256;2022-08-21T14:25:00;30.30;98.80
8643;DHT22;4359;49.358;11.256;2022-08-21T14:27:29;30.70;98.10
8643;DHT22;4359;49.358;11.256;2022-08-21T14:29:59;30.50;97.40
8643;DHT22;4359;49.358;11.256;2022-08-21T14:32:28;30.20;98.80
8643;DHT22;4359;49.358;11.256;2022-08-21T14:34:58;30.60;97.00
8643;DHT22;4359;49.358;11.256;2022-08-21T14:37:24;30.50;97.40
8643;DHT22;4359;49.358;11.256;2022-08-21T14:39:50;30.40;97.10
8643;DHT22;4359;49.358;11.256;2022-08-21T14:42:16;30.40;97.50
8643;DHT22;4359;49.358;11.256;2022-08-21T14:44:42;30.50;96.50
8643;DHT22;4359;49.358;11.256;2022-08-21T14:47:08;30.30;96.10
8643;DHT22;4359;49.358;11.256;2022-08-21T14:49:34;30.50;96.40
8643;DHT22;4359;49.358;11.256;2022-08-21T14:52:00;30.70;96.20
8643;DHT22;4359;49.358;11.256;2022-08-21T14:54:31;31.00;95.20
8643;DHT22;4359;49.358;11.256;2022-08-21T14:56:59;30.90;95.40
8643;DHT22;4359;49.358;11.256;2022-08-21T14:59:26;31.00;96.10
8643;DHT22;4359;49.358;11.256;2022-08-21T15:01:52;31.20;95.60
8643;DHT22;4359;49.358;11.256;2022-08-21T15:04:17;31.10;94.00
8643;DHT22;4359;49.358;11.256;2022-08-21T15:06:44;31.20;94.20
8643;DHT22;4359;49.358;11.256;2022-08-21T15:09:09;31.20;94.10
8643;DHT22;4359;49.358;11.256;2022-08-21T15:11:35;30.70;94.50
8643;DHT22;4359;49.358;11.256;2022-08-21T15:14:03;30.90;93.70
8643;DHT22;4359;49.358;11.256;2022-08-21T15:16:33;30.60;94.40
8643;DHT22;4359;49.358;11.256;2022-08-21T15:18:59;30.30;94.10
8643;DHT22;4359;49.358;11.256;2022-08-21T15:24:01;30.60;93.60
8643;DHT22;4359;49.358;11.256;2022-08-21T15:26:27;30.10;93.60
8643;DHT22;4359;49.358;11.256;2022-08-21T15:28:53;29.20;93.80
8643;DHT22;4359;49.358;11.256;2022-08-21T15:31:18;28.00;94.90
8643;DHT22;4359;49.358;11.256;2022-08-21T15:33:44;26.90;95.70
8643;DHT22;4359;49.358;11.256;2022-08-21T15:36:10;26.20;96.90
8643;DHT22;4359;49.358;11.256;2022-08-21T15:38:35;25.60;97.40
8643;DHT22;4359;49.358;11.256;2022-08-21T15:41:03;25.30;98.30
8643;DHT22;4359;49.358;11.256;2022-08-21T15:43:40;25.10;97.50
8643;DHT22;4359;49.358;11.256;2022-08-21T15:46:09;25.10;99.10
8643;DHT22;4359;49.358;11.256;2022-08-21T15:48:35;25.00;98.80
8643;DHT22;4359;49.358;11.256;2022-08-21T15:51:01;24.90;98.30
8643;DHT22;4359;49.358;11.256;2022-08-21T15:53:27;24.80;97.50
8643;DHT22;4359;49.358;11.256;2022-08-21T15:55:53;24.80;97.20
8643;DHT22;4359;49.358;11.256;2022-08-21T15:58:19;24.80;97.60
8643;DHT22;4359;49.358;11.256;2022-08-21T16:00:46;24.80;97.30
8643;DHT22;4359;49.358;11.256;2022-08-21T16:03:15;24.70;97.40
8643;DHT22;4359;49.358;11.256;2022-08-21T16:05:45;24.70;97.90
8643;DHT22;4359;49.358;11.256;2022-08-21T16:08:13;24.80;98.70
8643;DHT22;4359;49.358;11.256;2022-08-21T16:10:39;24.70;98.30
8643;DHT22;4359;49.358;11.256;2022-08-21T16:13:11;24.80;97.30
8643;DHT22;4359;49.358;11.256;2022-08-21T16:15:40;24.70;97.30
8643;DHT22;4359;49.358;11.256;2022-08-21T16:18:05;24.60;97.50
8643;DHT22;4359;49.358;11.256;2022-08-21T16:20:31;24.60;96.70
8643;DHT22;4359;49.358;11.256;2022-08-21T16:22:57;24.50;95.60
8643;DHT22;4359;49.358;11.256;2022-08-21T16:25:23;24.60;96.20
8643;DHT22;4359;49.358;11.256;2022-08-21T16:27:52;24.60;96.70
8643;DHT22;4359;49.358;11.256;2022-08-21T16:30:20;24.60;96.30
8643;DHT22;4359;49.358;11.256;2022-08-21T16:32:46;24.60;96.70
8643;DHT22;4359;49.358;11.256;2022-08-21T16:35:17;24.50;96.50
8643;DHT22;4359;49.358;11.256;2022-08-21T16:37:43;24.50;97.70
8643;DHT22;4359;49.358;11.256;2022-08-21T16:40:09;24.60;96.40
8643;DHT22;4359;49.358;11.256;2022-08-21T16:42:36;24.50;97.10
8643;DHT22;4359;49.358;11.256;2022-08-21T16:45:09;24.50;96.90
8643;DHT22;4359;49.358;11.256;2022-08-21T16:47:35;24.40;97.20
8643;DHT22;4359;49.358;11.256;2022-08-21T16:50:00;24.40;97.50
8643;DHT22;4359;49.358;11.256;2022-08-21T16:52:26;24.30;97.30
8643;DHT22;4359;49.358;11.256;2022-08-21T16:54:52;24.30;97.00
8643;DHT22;4359;49.358;11.256;2022-08-21T16:57:18;24.20;96.00
8643;DHT22;4359;49.358;11.256;2022-08-21T16:59:44;24.30;96.00
8643;DHT22;4359;49.358;11.256;2022-08-21T17:02:23;24.20;96.40
8643;DHT22;4359;49.358;11.256;2022-08-21T17:04:52;24.20;96.70
8643;DHT22;4359;49.358;11.256;2022-08-21T17:07:17;24.10;96.60
8643;DHT22;4359;49.358;11.256;2022-08-21T17:09:43;24.10;97.20
8643;DHT22;4359;49.358;11.256;2022-08-21T17:12:09;24.10;97.30
8643;DHT22;4359;49.358;11.256;2022-08-21T17:14:36;24.00;97.20